Terminal Aerodrome Forecast
Issued by NWS

Home | Current Version | Previous Version | Graphics & Text | Print | Product List | Glossary On
Versions: 1 2 3 4 5 6 7 8 9 10 11 12 13 14 15 16 17 18
000
FTUS43 KMPX 242300
TAFRWF
TAF
KRWF 242329Z 2500/2524 18013KT P6SM FEW060
     FM250300 15012KT P6SM SCT035 BKN060
      TEMPO 2507/2511 5SM -TSRA BR OVC035CB
     FM251100 17008KT P6SM SCT020 BKN035
     FM252000 30005KT P6SM BKN040=

USA.gov is the U.S. government's official web portal to all federal, state and local government web resources and services.